sensor_id;sensor_type;location;lat;lon;timestamp;temperature;humidity
8527;DHT22;4301;48.362;8.478;2022-11-20T00:01:41;4.20;99.90
8527;DHT22;4301;48.362;8.478;2022-11-20T00:04:09;4.20;99.90
8527;DHT22;4301;48.362;8.478;2022-11-20T00:06:37;4.10;99.90
8527;DHT22;4301;48.362;8.478;2022-11-20T00:09:04;4.00;99.90
8527;DHT22;4301;48.362;8.478;2022-11-20T00:11:32;4.00;99.90
8527;DHT22;4301;48.362;8.478;2022-11-20T00:14:00;3.90;99.90
8527;DHT22;4301;48.362;8.478;2022-11-20T00:16:32;3.90;99.90
8527;DHT22;4301;48.362;8.478;2022-11-20T00:18:59;3.80;99.90
8527;DHT22;4301;48.362;8.478;2022-11-20T00:21:27;3.80;99.90
8527;DHT22;4301;48.362;8.478;2022-11-20T00:23:56;3.70;99.90
8527;DHT22;4301;48.362;8.478;2022-11-20T00:26:25;3.70;99.90
8527;DHT22;4301;48.362;8.478;2022-11-20T00:28:54;3.70;99.90
8527;DHT22;4301;48.362;8.478;2022-11-20T00:31:21;3.60;99.90
8527;DHT22;4301;48.362;8.478;2022-11-20T00:33:49;3.60;99.90
8527;DHT22;4301;48.362;8.478;2022-11-20T00:36:19;3.70;99.90
8527;DHT22;4301;48.362;8.478;2022-11-20T00:38:47;3.60;99.90
8527;DHT22;4301;48.362;8.478;2022-11-20T00:41:17;3.60;99.90
8527;DHT22;4301;48.362;8.478;2022-11-20T00:43:44;3.60;99.90
8527;DHT22;4301;48.362;8.478;2022-11-20T00:46:13;3.50;99.90
8527;DHT22;4301;48.362;8.478;2022-11-20T00:48:41;3.40;99.90
8527;DHT22;4301;48.362;8.478;2022-11-20T00:51:09;3.40;99.90
8527;DHT22;4301;48.362;8.478;2022-11-20T00:53:37;3.30;99.90
8527;DHT22;4301;48.362;8.478;2022-11-20T00:56:06;3.30;99.90
8527;DHT22;4301;48.362;8.478;2022-11-20T00:58:35;3.20;99.90
8527;DHT22;4301;48.362;8.478;2022-11-20T01:01:03;3.20;99.90
8527;DHT22;4301;48.362;8.478;2022-11-20T01:03:32;3.30;99.90
8527;DHT22;4301;48.362;8.478;2022-11-20T01:06:02;3.30;99.90
8527;DHT22;4301;48.362;8.478;2022-11-20T01:08:32;3.30;99.90
8527;DHT22;4301;48.362;8.478;2022-11-20T01:11:00;3.30;99.90
8527;DHT22;4301;48.362;8.478;2022-11-20T01:13:29;3.20;99.90
8527;DHT22;4301;48.362;8.478;2022-11-20T01:16:05;3.20;99.90
8527;DHT22;4301;48.362;8.478;2022-11-20T01:18:33;3.20;99.90
8527;DHT22;4301;48.362;8.478;2022-11-20T01:21:01;3.20;99.90
8527;DHT22;4301;48.362;8.478;2022-11-20T01:23:32;3.20;99.90
8527;DHT22;4301;48.362;8.478;2022-11-20T01:26:00;3.20;99.90
8527;DHT22;4301;48.362;8.478;2022-11-20T01:28:28;3.20;99.90
8527;DHT22;4301;48.362;8.478;2022-11-20T01:30:55;3.30;99.90
8527;DHT22;4301;48.362;8.478;2022-11-20T01:33:22;3.20;99.90
8527;DHT22;4301;48.362;8.478;2022-11-20T01:35:49;3.20;99.90
8527;DHT22;4301;48.362;8.478;2022-11-20T01:38:16;3.20;99.90
8527;DHT22;4301;48.362;8.478;2022-11-20T01:40:53;3.20;99.90
8527;DHT22;4301;48.362;8.478;2022-11-20T01:43:20;3.20;99.90
8527;DHT22;4301;48.362;8.478;2022-11-20T01:46:13;3.20;99.90
8527;DHT22;4301;48.362;8.478;2022-11-20T01:48:46;3.20;99.90
8527;DHT22;4301;48.362;8.478;2022-11-20T01:51:19;3.20;99.90
8527;DHT22;4301;48.362;8.478;2022-11-20T01:53:47;3.20;99.90
8527;DHT22;4301;48.362;8.478;2022-11-20T01:56:16;3.20;99.90
8527;DHT22;4301;48.362;8.478;2022-11-20T01:58:47;3.30;99.90
8527;DHT22;4301;48.362;8.478;2022-11-20T02:01:15;3.40;99.90
8527;DHT22;4301;48.362;8.478;2022-11-20T02:03:42;3.40;99.90
8527;DHT22;4301;48.362;8.478;2022-11-20T02:06:14;3.40;99.90
8527;DHT22;4301;48.362;8.478;2022-11-20T02:08:43;3.50;99.90
8527;DHT22;4301;48.362;8.478;2022-11-20T02:11:10;3.40;99.90
8527;DHT22;4301;48.362;8.478;2022-11-20T02:13:40;3.50;99.90
8527;DHT22;4301;48.362;8.478;2022-11-20T02:16:12;3.50;99.90
8527;DHT22;4301;48.362;8.478;2022-11-20T02:18:39;3.50;99.90
8527;DHT22;4301;48.362;8.478;2022-11-20T02:21:13;3.50;99.90
8527;DHT22;4301;48.362;8.478;2022-11-20T02:24:01;3.50;99.90
8527;DHT22;4301;48.362;8.478;2022-11-20T02:26:30;3.50;99.90
8527;DHT22;4301;48.362;8.478;2022-11-20T02:28:58;3.50;99.90
8527;DHT22;4301;48.362;8.478;2022-11-20T02:31:27;3.50;99.90
8527;DHT22;4301;48.362;8.478;2022-11-20T02:33:55;3.50;99.90
8527;DHT22;4301;48.362;8.478;2022-11-20T02:36:24;3.50;99.90
8527;DHT22;4301;48.362;8.478;2022-11-20T02:38:54;3.50;99.90
8527;DHT22;4301;48.362;8.478;2022-11-20T02:41:22;3.60;99.90
8527;DHT22;4301;48.362;8.478;2022-11-20T02:43:56;3.60;99.90
8527;DHT22;4301;48.362;8.478;2022-11-20T02:46:23;3.60;99.90
8527;DHT22;4301;48.362;8.478;2022-11-20T02:48:50;3.50;99.90
8527;DHT22;4301;48.362;8.478;2022-11-20T02:51:17;3.50;99.90
8527;DHT22;4301;48.362;8.478;2022-11-20T02:53:44;3.50;99.90
8527;DHT22;4301;48.362;8.478;2022-11-20T02:56:13;3.50;99.90
8527;DHT22;4301;48.362;8.478;2022-11-20T02:58:40;3.50;99.90
8527;DHT22;4301;48.362;8.478;2022-11-20T03:01:07;3.50;99.90
8527;DHT22;4301;48.362;8.478;2022-11-20T03:03:34;3.50;99.90
8527;DHT22;4301;48.362;8.478;2022-11-20T03:06:01;3.50;99.90
8527;DHT22;4301;48.362;8.478;2022-11-20T03:08:28;3.50;99.90
8527;DHT22;4301;48.362;8.478;2022-11-20T03:10:55;3.50;99.90
8527;DHT22;4301;48.362;8.478;2022-11-20T03:13:24;3.40;99.90
8527;DHT22;4301;48.362;8.478;2022-11-20T03:15:51;3.40;99.90
8527;DHT22;4301;48.362;8.478;2022-11-20T03:18:18;3.40;99.90
8527;DHT22;4301;48.362;8.478;2022-11-20T03:20:45;3.40;99.90
8527;DHT22;4301;48.362;8.478;2022-11-20T03:23:12;3.30;99.90
8527;DHT22;4301;48.362;8.478;2022-11-20T03:25:39;3.30;99.90
8527;DHT22;4301;48.362;8.478;2022-11-20T03:28:06;3.20;99.90
8527;DHT22;4301;48.362;8.478;2022-11-20T03:30:35;3.20;99.90
8527;DHT22;4301;48.362;8.478;2022-11-20T03:33:01;3.20;99.90
8527;DHT22;4301;48.362;8.478;2022-11-20T03:35:28;3.20;99.90
8527;DHT22;4301;48.362;8.478;2022-11-20T03:37:56;3.20;99.90
8527;DHT22;4301;48.362;8.478;2022-11-20T03:40:23;3.10;99.90
8527;DHT22;4301;48.362;8.478;2022-11-20T03:42:50;3.10;99.90
8527;DHT22;4301;48.362;8.478;2022-11-20T03:45:18;3.10;99.90
8527;DHT22;4301;48.362;8.478;2022-11-20T03:47:46;3.00;99.90
8527;DHT22;4301;48.362;8.478;2022-11-20T03:50:14;2.90;99.90
8527;DHT22;4301;48.362;8.478;2022-11-20T03:52:41;2.90;99.90
8527;DHT22;4301;48.362;8.478;2022-11-20T03:55:08;2.90;99.90
8527;DHT22;4301;48.362;8.478;2022-11-20T03:57:35;2.90;99.90
8527;DHT22;4301;48.362;8.478;2022-11-20T04:00:03;2.90;99.90
8527;DHT22;4301;48.362;8.478;2022-11-20T04:02:30;2.90;99.90
8527;DHT22;4301;48.362;8.478;2022-11-20T04:04:59;2.90;99.90
8527;DHT22;4301;48.362;8.478;2022-11-20T04:07:26;2.80;99.90
8527;DHT22;4301;48.362;8.478;2022-11-20T04:09:52;2.80;99.90
8527;DHT22;4301;48.362;8.478;2022-11-20T04:12:19;2.80;99.90
8527;DHT22;4301;48.362;8.478;2022-11-20T04:14:46;2.70;99.90
8527;DHT22;4301;48.362;8.478;2022-11-20T04:17:13;2.70;99.90
8527;DHT22;4301;48.362;8.478;2022-11-20T04:19:40;2.80;99.90
8527;DHT22;4301;48.362;8.478;2022-11-20T04:22:08;2.70;99.90
8527;DHT22;4301;48.362;8.478;2022-11-20T04:24:37;2.70;99.90
8527;DHT22;4301;48.362;8.478;2022-11-20T04:27:04;2.70;99.90
8527;DHT22;4301;48.362;8.478;2022-11-20T04:29:30;2.90;99.90
8527;DHT22;4301;48.362;8.478;2022-11-20T04:31:57;3.00;99.90
8527;DHT22;4301;48.362;8.478;2022-11-20T04:34:24;3.00;99.90
8527;DHT22;4301;48.362;8.478;2022-11-20T04:36:51;3.10;99.90
8527;DHT22;4301;48.362;8.478;2022-11-20T04:39:19;3.10;99.90
8527;DHT22;4301;48.362;8.478;2022-11-20T04:41:46;3.10;99.90
8527;DHT22;4301;48.362;8.478;2022-11-20T04:44:13;3.10;99.90
8527;DHT22;4301;48.362;8.478;2022-11-20T04:46:41;3.20;99.90
8527;DHT22;4301;48.362;8.478;2022-11-20T04:49:10;3.10;99.90
8527;DHT22;4301;48.362;8.478;2022-11-20T04:51:37;3.20;99.90
8527;DHT22;4301;48.362;8.478;2022-11-20T04:54:04;3.20;99.90
8527;DHT22;4301;48.362;8.478;2022-11-20T04:56:32;3.10;99.90
8527;DHT22;4301;48.362;8.478;2022-11-20T04:59:00;3.10;99.90
8527;DHT22;4301;48.362;8.478;2022-11-20T05:01:28;3.10;99.90
8527;DHT22;4301;48.362;8.478;2022-11-20T05:03:54;3.10;99.90
8527;DHT22;4301;48.362;8.478;2022-11-20T05:06:22;3.20;99.90
8527;DHT22;4301;48.362;8.478;2022-11-20T05:08:49;3.30;99.90
8527;DHT22;4301;48.362;8.478;2022-11-20T05:11:19;3.40;99.90
8527;DHT22;4301;48.362;8.478;2022-11-20T05:13:48;3.50;99.90
8527;DHT22;4301;48.362;8.478;2022-11-20T05:16:17;3.60;99.90
8527;DHT22;4301;48.362;8.478;2022-11-20T05:18:44;3.60;99.90
8527;DHT22;4301;48.362;8.478;2022-11-20T05:21:12;3.60;99.90
8527;DHT22;4301;48.362;8.478;2022-11-20T05:23:40;3.60;99.90
8527;DHT22;4301;48.362;8.478;2022-11-20T05:26:11;3.60;99.90
8527;DHT22;4301;48.362;8.478;2022-11-20T05:28:38;3.70;99.90
8527;DHT22;4301;48.362;8.478;2022-11-20T05:31:08;3.70;99.90
8527;DHT22;4301;48.362;8.478;2022-11-20T05:33:35;3.70;99.90
8527;DHT22;4301;48.362;8.478;2022-11-20T05:36:03;3.80;99.90
8527;DHT22;4301;48.362;8.478;2022-11-20T05:38:30;3.80;99.90
8527;DHT22;4301;48.362;8.478;2022-11-20T05:41:04;3.80;99.90
8527;DHT22;4301;48.362;8.478;2022-11-20T05:43:32;3.80;99.90
8527;DHT22;4301;48.362;8.478;2022-11-20T05:46:00;3.80;99.90
8527;DHT22;4301;48.362;8.478;2022-11-20T05:48:28;3.80;99.90
8527;DHT22;4301;48.362;8.478;2022-11-20T05:50:57;3.80;99.90
8527;DHT22;4301;48.362;8.478;2022-11-20T05:53:24;3.80;99.90
8527;DHT22;4301;48.362;8.478;2022-11-20T05:55:57;3.80;99.90
8527;DHT22;4301;48.362;8.478;2022-11-20T05:58:24;3.80;99.90
8527;DHT22;4301;48.362;8.478;2022-11-20T06:00:51;3.80;99.90
8527;DHT22;4301;48.362;8.478;2022-11-20T06:03:18;3.80;99.90
8527;DHT22;4301;48.362;8.478;2022-11-20T06:05:46;3.80;99.90
8527;DHT22;4301;48.362;8.478;2022-11-20T06:08:13;3.80;99.90
8527;DHT22;4301;48.362;8.478;2022-11-20T06:10:40;3.80;99.90
8527;DHT22;4301;48.362;8.478;2022-11-20T06:13:07;3.80;99.90
8527;DHT22;4301;48.362;8.478;2022-11-20T06:15:34;3.80;99.90
8527;DHT22;4301;48.362;8.478;2022-11-20T06:18:01;3.80;99.90
8527;DHT22;4301;48.362;8.478;2022-11-20T06:20:28;3.80;99.90
8527;DHT22;4301;48.362;8.478;2022-11-20T06:22:56;3.80;99.90
8527;DHT22;4301;48.362;8.478;2022-11-20T06:25:23;3.90;99.90
8527;DHT22;4301;48.362;8.478;2022-11-20T06:27:50;3.90;99.90
8527;DHT22;4301;48.362;8.478;2022-11-20T06:30:17;3.90;99.90
8527;DHT22;4301;48.362;8.478;2022-11-20T06:32:44;3.90;99.90
8527;DHT22;4301;48.362;8.478;2022-11-20T06:35:10;3.90;99.90
8527;DHT22;4301;48.362;8.478;2022-11-20T06:37:37;3.90;99.90
8527;DHT22;4301;48.362;8.478;2022-11-20T06:40:07;3.90;99.90
8527;DHT22;4301;48.362;8.478;2022-11-20T06:42:34;3.90;99.90
8527;DHT22;4301;48.362;8.478;2022-11-20T06:45:01;3.90;99.90
8527;DHT22;4301;48.362;8.478;2022-11-20T06:47:28;3.90;99.90
8527;DHT22;4301;48.362;8.478;2022-11-20T06:49:55;3.90;99.90
8527;DHT22;4301;48.362;8.478;2022-11-20T06:52:22;3.90;99.90
8527;DHT22;4301;48.362;8.478;2022-11-20T06:54:49;3.90;99.90
8527;DHT22;4301;48.362;8.478;2022-11-20T06:57:17;3.90;99.90
8527;DHT22;4301;48.362;8.478;2022-11-20T06:59:44;3.90;99.90
8527;DHT22;4301;48.362;8.478;2022-11-20T07:02:12;3.90;99.90
8527;DHT22;4301;48.362;8.478;2022-11-20T07:04:39;3.90;99.90
8527;DHT22;4301;48.362;8.478;2022-11-20T07:07:06;3.90;99.90
8527;DHT22;4301;48.362;8.478;2022-11-20T07:09:33;3.90;99.90
8527;DHT22;4301;48.362;8.478;2022-11-20T07:12:00;4.00;99.90
8527;DHT22;4301;48.362;8.478;2022-11-20T07:14:28;3.90;99.90
8527;DHT22;4301;48.362;8.478;2022-11-20T07:16:55;4.00;99.90
8527;DHT22;4301;48.362;8.478;2022-11-20T07:19:22;4.00;99.90
8527;DHT22;4301;48.362;8.478;2022-11-20T07:21:49;4.00;99.90
8527;DHT22;4301;48.362;8.478;2022-11-20T07:24:16;4.00;99.90
8527;DHT22;4301;48.362;8.478;2022-11-20T07:26:45;4.00;99.90
8527;DHT22;4301;48.362;8.478;2022-11-20T07:29:12;4.00;99.90
8527;DHT22;4301;48.362;8.478;2022-11-20T07:31:40;4.10;99.90
8527;DHT22;4301;48.362;8.478;2022-11-20T07:34:07;4.20;99.90
8527;DHT22;4301;48.362;8.478;2022-11-20T07:36:34;4.20;99.90
8527;DHT22;4301;48.362;8.478;2022-11-20T07:39:01;4.20;99.90
8527;DHT22;4301;48.362;8.478;2022-11-20T07:41:28;4.20;99.90
8527;DHT22;4301;48.362;8.478;2022-11-20T07:43:55;4.20;99.90
8527;DHT22;4301;48.362;8.478;2022-11-20T07:46:22;4.20;99.90
8527;DHT22;4301;48.362;8.478;2022-11-20T07:48:50;4.20;99.90
8527;DHT22;4301;48.362;8.478;2022-11-20T07:51:17;4.30;99.90
8527;DHT22;4301;48.362;8.478;2022-11-20T07:53:44;4.30;99.90
8527;DHT22;4301;48.362;8.478;2022-11-20T07:56:11;4.30;99.90
8527;DHT22;4301;48.362;8.478;2022-11-20T07:58:39;4.30;99.90
8527;DHT22;4301;48.362;8.478;2022-11-20T08:01:07;4.20;99.90
8527;DHT22;4301;48.362;8.478;2022-11-20T08:03:35;4.20;99.90
8527;DHT22;4301;48.362;8.478;2022-11-20T08:06:04;4.20;99.90
8527;DHT22;4301;48.362;8.478;2022-11-20T08:08:32;4.20;99.90
8527;DHT22;4301;48.362;8.478;2022-11-20T08:10:58;4.20;99.90
8527;DHT22;4301;48.362;8.478;2022-11-20T08:13:46;4.20;99.90
8527;DHT22;4301;48.362;8.478;2022-11-20T08:16:31;4.30;99.90
8527;DHT22;4301;48.362;8.478;2022-11-20T08:18:57;4.30;99.90
8527;DHT22;4301;48.362;8.478;2022-11-20T08:21:26;4.20;99.90
8527;DHT22;4301;48.362;8.478;2022-11-20T08:23:53;4.20;99.90
8527;DHT22;4301;48.362;8.478;2022-11-20T08:26:21;4.20;99.90
8527;DHT22;4301;48.362;8.478;2022-11-20T08:28:49;4.20;99.90
8527;DHT22;4301;48.362;8.478;2022-11-20T08:31:16;4.20;99.90
8527;DHT22;4301;48.362;8.478;2022-11-20T08:33:42;4.20;99.90
8527;DHT22;4301;48.362;8.478;2022-11-20T08:36:09;4.20;99.90
8527;DHT22;4301;48.362;8.478;2022-11-20T08:38:38;4.20;99.90
8527;DHT22;4301;48.362;8.478;2022-11-20T08:41:05;4.20;99.90
8527;DHT22;4301;48.362;8.478;2022-11-20T08:43:53;4.20;99.90
8527;DHT22;4301;48.362;8.478;2022-11-20T08:46:20;4.20;99.90
8527;DHT22;4301;48.362;8.478;2022-11-20T08:48:47;4.20;99.90
8527;DHT22;4301;48.362;8.478;2022-11-20T08:51:14;4.20;99.90
8527;DHT22;4301;48.362;8.478;2022-11-20T08:53:43;4.20;99.90
8527;DHT22;4301;48.362;8.478;2022-11-20T08:56:10;4.20;99.90
8527;DHT22;4301;48.362;8.478;2022-11-20T08:58:37;4.20;99.90
8527;DHT22;4301;48.362;8.478;2022-11-20T09:01:04;4.20;99.90
8527;DHT22;4301;48.362;8.478;2022-11-20T09:03:31;4.30;99.90
8527;DHT22;4301;48.362;8.478;2022-11-20T09:05:58;4.20;99.90
8527;DHT22;4301;48.362;8.478;2022-11-20T09:08:27;4.30;99.90
8527;DHT22;4301;48.362;8.478;2022-11-20T09:10:56;4.20;99.90
8527;DHT22;4301;48.362;8.478;2022-11-20T09:13:24;4.30;99.90
8527;DHT22;4301;48.362;8.478;2022-11-20T09:15:54;4.40;99.90
8527;DHT22;4301;48.362;8.478;2022-11-20T09:18:21;4.30;99.90
8527;DHT22;4301;48.362;8.478;2022-11-20T09:20:49;4.30;99.90
8527;DHT22;4301;48.362;8.478;2022-11-20T09:23:16;4.30;99.90
8527;DHT22;4301;48.362;8.478;2022-11-20T09:25:43;4.30;99.90
8527;DHT22;4301;48.362;8.478;2022-11-20T09:28:12;4.30;99.90
8527;DHT22;4301;48.362;8.478;2022-11-20T09:30:39;4.30;99.90
8527;DHT22;4301;48.362;8.478;2022-11-20T09:33:06;4.30;99.90
8527;DHT22;4301;48.362;8.478;2022-11-20T09:35:33;4.30;99.90
8527;DHT22;4301;48.362;8.478;2022-11-20T09:38:05;4.30;99.90
8527;DHT22;4301;48.362;8.478;2022-11-20T09:40:33;4.30;99.90
8527;DHT22;4301;48.362;8.478;2022-11-20T09:43:04;4.30;99.90
8527;DHT22;4301;48.362;8.478;2022-11-20T09:45:48;4.30;99.90
8527;DHT22;4301;48.362;8.478;2022-11-20T09:48:37;4.30;99.90
8527;DHT22;4301;48.362;8.478;2022-11-20T09:51:14;4.40;99.90
8527;DHT22;4301;48.362;8.478;2022-11-20T09:53:53;4.40;99.90
8527;DHT22;4301;48.362;8.478;2022-11-20T09:56:23;4.40;99.90
8527;DHT22;4301;48.362;8.478;2022-11-20T09:58:51;4.40;99.90
8527;DHT22;4301;48.362;8.478;2022-11-20T10:01:26;4.50;99.90
8527;DHT22;4301;48.362;8.478;2022-11-20T10:03:57;4.50;99.90
8527;DHT22;4301;48.362;8.478;2022-11-20T10:06:30;4.40;99.90
8527;DHT22;4301;48.362;8.478;2022-11-20T10:09:18;4.40;99.90
8527;DHT22;4301;48.362;8.478;2022-11-20T10:11:58;4.40;99.90
8527;DHT22;4301;48.362;8.478;2022-11-20T10:14:35;4.40;99.90
8527;DHT22;4301;48.362;8.478;2022-11-20T10:17:13;4.50;99.90
8527;DHT22;4301;48.362;8.478;2022-11-20T10:19:52;4.50;99.90
8527;DHT22;4301;48.362;8.478;2022-11-20T10:22:32;4.50;99.90
8527;DHT22;4301;48.362;8.478;2022-11-20T10:25:06;4.50;99.90
8527;DHT22;4301;48.362;8.478;2022-11-20T10:28:01;4.60;99.90
8527;DHT22;4301;48.362;8.478;2022-11-20T10:30:30;4.60;99.90
8527;DHT22;4301;48.362;8.478;2022-11-20T10:33:03;4.70;99.90
8527;DHT22;4301;48.362;8.478;2022-11-20T10:35:35;4.70;99.90
8527;DHT22;4301;48.362;8.478;2022-11-20T10:38:08;4.70;99.90
8527;DHT22;4301;48.362;8.478;2022-11-20T10:40:39;4.70;99.90
8527;DHT22;4301;48.362;8.478;2022-11-20T10:43:13;4.70;99.90
8527;DHT22;4301;48.362;8.478;2022-11-20T10:45:48;4.80;99.90
8527;DHT22;4301;48.362;8.478;2022-11-20T10:48:21;4.80;99.90
8527;DHT22;4301;48.362;8.478;2022-11-20T10:51:12;4.80;99.90
8527;DHT22;4301;48.362;8.478;2022-11-20T10:53:49;5.00;99.90
8527;DHT22;4301;48.362;8.478;2022-11-20T10:56:21;5.00;99.90
8527;DHT22;4301;48.362;8.478;2022-11-20T10:59:03;5.10;99.90
8527;DHT22;4301;48.362;8.478;2022-11-20T11:01:40;5.30;99.90
8527;DHT22;4301;48.362;8.478;2022-11-20T11:04:18;5.50;99.90
8527;DHT22;4301;48.362;8.478;2022-11-20T11:06:48;5.40;99.90
8527;DHT22;4301;48.362;8.478;2022-11-20T11:09:17;5.40;99.90
8527;DHT22;4301;48.362;8.478;2022-11-20T11:11:46;5.40;99.90
8527;DHT22;4301;48.362;8.478;2022-11-20T11:14:14;5.40;99.90
8527;DHT22;4301;48.362;8.478;2022-11-20T11:16:49;5.50;99.90
8527;DHT22;4301;48.362;8.478;2022-11-20T11:19:18;5.60;92.90
8527;DHT22;4301;48.362;8.478;2022-11-20T11:21:47;5.70;99.90
8527;DHT22;4301;48.362;8.478;2022-11-20T11:24:21;6.10;29.60
8527;DHT22;4301;48.362;8.478;2022-11-20T11:26:57;6.50;17.40
8527;DHT22;4301;48.362;8.478;2022-11-20T11:29:24;6.50;17.40
8527;DHT22;4301;48.362;8.478;2022-11-20T11:32:04;6.80;32.00
8527;DHT22;4301;48.362;8.478;2022-11-20T11:34:33;6.70;1.00
8527;DHT22;4301;48.362;8.478;2022-11-20T11:37:01;6.50;1.00
8527;DHT22;4301;48.362;8.478;2022-11-20T11:39:30;6.30;1.00
8527;DHT22;4301;48.362;8.478;2022-11-20T11:41:58;6.20;1.00
8527;DHT22;4301;48.362;8.478;2022-11-20T11:44:30;6.00;1.00
8527;DHT22;4301;48.362;8.478;2022-11-20T11:47:23;5.90;2.40
8527;DHT22;4301;48.362;8.478;2022-11-20T11:50:15;6.10;1.00
8527;DHT22;4301;48.362;8.478;2022-11-20T11:52:45;6.20;1.00
8527;DHT22;4301;48.362;8.478;2022-11-20T11:55:16;6.30;1.00
8527;DHT22;4301;48.362;8.478;2022-11-20T11:57:47;6.60;1.00
8527;DHT22;4301;48.362;8.478;2022-11-20T12:00:18;8.30;1.00
8527;DHT22;4301;48.362;8.478;2022-11-20T12:02:55;10.30;99.90
8527;DHT22;4301;48.362;8.478;2022-11-20T12:05:27;11.30;1.00
8527;DHT22;4301;48.362;8.478;2022-11-20T12:07:57;11.50;99.90
8527;DHT22;4301;48.362;8.478;2022-11-20T12:10:38;10.60;99.90
8527;DHT22;4301;48.362;8.478;2022-11-20T12:13:21;10.00;99.90
8527;DHT22;4301;48.362;8.478;2022-11-20T12:15:53;9.40;1.00
8527;DHT22;4301;48.362;8.478;2022-11-20T12:18:21;8.60;99.90
8527;DHT22;4301;48.362;8.478;2022-11-20T12:21:01;8.10;1.00
8527;DHT22;4301;48.362;8.478;2022-11-20T12:23:37;7.70;99.90
8527;DHT22;4301;48.362;8.478;2022-11-20T12:26:10;7.30;1.00
8527;DHT22;4301;48.362;8.478;2022-11-20T12:28:56;7.20;99.90
8527;DHT22;4301;48.362;8.478;2022-11-20T12:31:36;7.00;1.00
8527;DHT22;4301;48.362;8.478;2022-11-20T12:34:36;7.20;1.00
8527;DHT22;4301;48.362;8.478;2022-11-20T12:37:19;7.10;1.00
8527;DHT22;4301;48.362;8.478;2022-11-20T12:39:49;7.00;1.00
8527;DHT22;4301;48.362;8.478;2022-11-20T12:42:27;6.80;1.00
8527;DHT22;4301;48.362;8.478;2022-11-20T12:45:32;6.60;1.00
8527;DHT22;4301;48.362;8.478;2022-11-20T12:51:17;6.70;1.00
8527;DHT22;4301;48.362;8.478;2022-11-20T12:54:02;6.60;1.00
8527;DHT22;4301;48.362;8.478;2022-11-20T12:56:40;6.40;1.00
8527;DHT22;4301;48.362;8.478;2022-11-20T12:59:32;6.40;1.00
8527;DHT22;4301;48.362;8.478;2022-11-20T13:02:12;6.40;1.00
8527;DHT22;4301;48.362;8.478;2022-11-20T13:05:09;6.60;1.00
8527;DHT22;4301;48.362;8.478;2022-11-20T13:07:42;6.80;1.00
8527;DHT22;4301;48.362;8.478;2022-11-20T13:10:18;6.80;1.00
8527;DHT22;4301;48.362;8.478;2022-11-20T13:12:51;6.70;1.00
8527;DHT22;4301;48.362;8.478;2022-11-20T13:15:31;6.50;1.00
8527;DHT22;4301;48.362;8.478;2022-11-20T13:18:02;6.40;1.00
8527;DHT22;4301;48.362;8.478;2022-11-20T13:20:32;6.30;1.00
8527;DHT22;4301;48.362;8.478;2022-11-20T13:23:00;6.30;1.00
8527;DHT22;4301;48.362;8.478;2022-11-20T13:25:29;6.30;1.00
8527;DHT22;4301;48.362;8.478;2022-11-20T13:27:59;6.30;1.00
8527;DHT22;4301;48.362;8.478;2022-11-20T13:30:28;6.40;1.00
8527;DHT22;4301;48.362;8.478;2022-11-20T13:32:56;7.30;1.00
8527;DHT22;4301;48.362;8.478;2022-11-20T13:35:28;7.40;1.00
8527;DHT22;4301;48.362;8.478;2022-11-20T13:38:05;7.30;1.00
8527;DHT22;4301;48.362;8.478;2022-11-20T13:40:36;7.10;1.00
8527;DHT22;4301;48.362;8.478;2022-11-20T13:43:19;6.90;1.00
8527;DHT22;4301;48.362;8.478;2022-11-20T13:45:58;6.60;1.00
8527;DHT22;4301;48.362;8.478;2022-11-20T13:48:30;6.40;1.00
8527;DHT22;4301;48.362;8.478;2022-11-20T13:51:11;6.20;1.00
8527;DHT22;4301;48.362;8.478;2022-11-20T13:54:01;6.10;1.00
8527;DHT22;4301;48.362;8.478;2022-11-20T13:56:40;5.90;1.00
8527;DHT22;4301;48.362;8.478;2022-11-20T13:59:22;5.70;1.00
8527;DHT22;4301;48.362;8.478;2022-11-20T14:01:53;5.70;1.00
8527;DHT22;4301;48.362;8.478;2022-11-20T14:04:26;5.50;2.50
8527;DHT22;4301;48.362;8.478;2022-11-20T14:06:54;5.40;63.20
8527;DHT22;4301;48.362;8.478;2022-11-20T14:09:25;5.30;43.50
8527;DHT22;4301;48.362;8.478;2022-11-20T14:11:54;5.30;95.40
8527;DHT22;4301;48.362;8.478;2022-11-20T14:14:23;5.50;38.50
8527;DHT22;4301;48.362;8.478;2022-11-20T14:16:53;5.70;29.30
8527;DHT22;4301;48.362;8.478;2022-11-20T14:19:31;5.70;42.90
8527;DHT22;4301;48.362;8.478;2022-11-20T14:22:16;5.90;28.00
8527;DHT22;4301;48.362;8.478;2022-11-20T14:24:44;6.10;75.00
8527;DHT22;4301;48.362;8.478;2022-11-20T14:27:15;6.20;79.60
8527;DHT22;4301;48.362;8.478;2022-11-20T14:29:44;6.90;1.00
8527;DHT22;4301;48.362;8.478;2022-11-20T14:32:15;7.20;1.00
8527;DHT22;4301;48.362;8.478;2022-11-20T14:34:45;7.60;1.00
8527;DHT22;4301;48.362;8.478;2022-11-20T14:37:17;7.90;99.90
8527;DHT22;4301;48.362;8.478;2022-11-20T14:39:50;8.30;26.40
8527;DHT22;4301;48.362;8.478;2022-11-20T14:42:21;8.70;99.90
8527;DHT22;4301;48.362;8.478;2022-11-20T14:44:49;8.40;1.00
8527;DHT22;4301;48.362;8.478;2022-11-20T14:47:19;8.00;1.00
8527;DHT22;4301;48.362;8.478;2022-11-20T14:49:48;7.50;1.00
8527;DHT22;4301;48.362;8.478;2022-11-20T14:52:17;7.20;1.00
8527;DHT22;4301;48.362;8.478;2022-11-20T14:54:45;6.90;1.00
8527;DHT22;4301;48.362;8.478;2022-11-20T14:57:28;6.50;1.00
8527;DHT22;4301;48.362;8.478;2022-11-20T15:00:07;6.20;1.00
8527;DHT22;4301;48.362;8.478;2022-11-20T15:02:40;6.00;1.00
8527;DHT22;4301;48.362;8.478;2022-11-20T15:05:07;6.00;1.00
8527;DHT22;4301;48.362;8.478;2022-11-20T15:07:36;5.90;1.00
8527;DHT22;4301;48.362;8.478;2022-11-20T15:10:05;5.70;1.00
8527;DHT22;4301;48.362;8.478;2022-11-20T15:12:38;5.60;1.00
8527;DHT22;4301;48.362;8.478;2022-11-20T15:15:11;5.60;1.00
8527;DHT22;4301;48.362;8.478;2022-11-20T15:17:39;5.50;1.00
8527;DHT22;4301;48.362;8.478;2022-11-20T15:20:11;5.40;16.20
8527;DHT22;4301;48.362;8.478;2022-11-20T15:22:40;5.30;1.00
8527;DHT22;4301;48.362;8.478;2022-11-20T15:25:12;5.20;1.00
8527;DHT22;4301;48.362;8.478;2022-11-20T15:27:41;5.10;24.90
8527;DHT22;4301;48.362;8.478;2022-11-20T15:30:17;5.00;21.10
8527;DHT22;4301;48.362;8.478;2022-11-20T15:32:48;5.00;21.50
8527;DHT22;4301;48.362;8.478;2022-11-20T15:35:18;4.90;42.10
8527;DHT22;4301;48.362;8.478;2022-11-20T15:37:47;4.80;36.60
8527;DHT22;4301;48.362;8.478;2022-11-20T15:40:14;4.70;40.30
8527;DHT22;4301;48.362;8.478;2022-11-20T15:42:45;4.70;43.70
8527;DHT22;4301;48.362;8.478;2022-11-20T15:45:28;4.60;26.40
8527;DHT22;4301;48.362;8.478;2022-11-20T15:47:58;4.60;42.50
8527;DHT22;4301;48.362;8.478;2022-11-20T15:50:34;4.50;59.90
8527;DHT22;4301;48.362;8.478;2022-11-20T15:53:01;4.50;66.00
8527;DHT22;4301;48.362;8.478;2022-11-20T15:55:28;4.50;74.00
8527;DHT22;4301;48.362;8.478;2022-11-20T15:57:56;4.40;57.20
8527;DHT22;4301;48.362;8.478;2022-11-20T16:00:23;4.40;51.60
8527;DHT22;4301;48.362;8.478;2022-11-20T16:02:50;4.40;71.20
8527;DHT22;4301;48.362;8.478;2022-11-20T16:05:17;4.30;69.40
8527;DHT22;4301;48.362;8.478;2022-11-20T16:07:44;4.30;60.00
8527;DHT22;4301;48.362;8.478;2022-11-20T16:10:11;4.30;75.60
8527;DHT22;4301;48.362;8.478;2022-11-20T16:12:38;4.30;77.20
8527;DHT22;4301;48.362;8.478;2022-11-20T16:15:23;4.30;80.60
8527;DHT22;4301;48.362;8.478;2022-11-20T16:18:09;4.20;66.90
8527;DHT22;4301;48.362;8.478;2022-11-20T16:20:37;4.20;77.60
8527;DHT22;4301;48.362;8.478;2022-11-20T16:23:04;4.20;74.30
8527;DHT22;4301;48.362;8.478;2022-11-20T16:25:31;4.20;77.70
8527;DHT22;4301;48.362;8.478;2022-11-20T16:27:58;4.20;82.00
8527;DHT22;4301;48.362;8.478;2022-11-20T16:30:27;4.20;90.20
8527;DHT22;4301;48.362;8.478;2022-11-20T16:32:54;4.20;79.50
8527;DHT22;4301;48.362;8.478;2022-11-20T16:35:21;4.20;86.70
8527;DHT22;4301;48.362;8.478;2022-11-20T16:37:48;4.20;82.40
8527;DHT22;4301;48.362;8.478;2022-11-20T16:40:15;4.20;81.70
8527;DHT22;4301;48.362;8.478;2022-11-20T16:42:42;4.20;77.40
8527;DHT22;4301;48.362;8.478;2022-11-20T16:45:09;4.20;75.00